Time;durP1;ratioP1;P1;durP2;ratioP2;P2;SDS_P1;SDS_P2;PMS_P1;PMS_P2;Temp;Humidity;BMP_temperature;BMP_pressure;BME280_temperature;BME280_humidity;BME280_pressure;Samples;Min_cycle;Max_cycle;Signal;HPM_P1;HPM_P2
2023/07/11 00:00:15;;;;;;;6.78;4.00;;;;;;;21.02;64.11;99520.72;4853461;29;20040;-89
2023/07/11 00:02:44;;;;;;;10.48;4.13;;;;;;;21.04;63.93;99520.41;4837621;29;20005;-89
2023/07/11 00:05:12;;;;;;;6.22;4.22;;;;;;;21.09;63.80;99533.91;4837480;29;20441;-89
2023/07/11 00:07:37;;;;;;;8.55;4.30;;;;;;;21.10;63.49;99519.06;4837889;29;20033;-89
2023/07/11 00:10:03;;;;;;;5.85;4.00;;;;;;;21.23;61.00;99514.44;4852021;29;20029;-89
2023/07/11 00:12:29;;;;;;;4.65;3.40;;;;;;;21.34;60.09;99527.41;4852802;29;20040;-89
2023/07/11 00:14:55;;;;;;;5.13;3.53;;;;;;;21.20;63.10;99532.34;4836911;29;20053;-89
2023/07/11 00:17:21;;;;;;;9.00;4.53;;;;;;;21.23;62.90;99536.34;4837676;29;20472;-89
2023/07/11 00:19:50;;;;;;;5.15;3.90;;;;;;;20.99;63.28;99518.69;4837046;29;20029;-89
2023/07/11 00:22:16;;;;;;;7.30;4.57;;;;;;;21.04;63.60;99539.56;4852326;29;20032;-89
2023/07/11 00:24:41;;;;;;;5.30;4.00;;;;;;;20.96;64.26;99538.53;4837430;29;20025;-89
2023/07/11 00:27:07;;;;;;;7.05;3.80;;;;;;;20.97;63.58;99526.44;4837593;29;20032;-89
2023/07/11 00:29:33;;;;;;;6.43;4.05;;;;;;;20.94;64.58;99522.44;4837249;29;20040;-89
2023/07/11 00:31:58;;;;;;;7.45;4.38;;;;;;;20.95;64.48;99521.28;4836818;29;20040;-89
2023/07/11 00:34:24;;;;;;;6.75;4.55;;;;;;;20.82;64.58;99508.69;4837282;29;20487;-89
2023/07/11 00:36:49;;;;;;;6.28;4.03;;;;;;;20.91;64.26;99503.13;4852731;29;20480;-89
2023/07/11 00:39:16;;;;;;;7.03;4.13;;;;;;;20.98;64.09;99512.41;4836914;29;20020;-89
2023/07/11 00:41:42;;;;;;;7.18;4.50;;;;;;;20.85;64.91;99510.72;4836813;29;20040;-89
2023/07/11 00:44:14;;;;;;;6.40;4.30;;;;;;;20.85;65.22;99515.41;4836407;29;20119;-89
2023/07/11 00:46:41;;;;;;;5.75;4.25;;;;;;;20.81;65.24;99506.25;4836116;29;20033;-89
2023/07/11 00:49:06;;;;;;;10.32;4.47;;;;;;;20.73;65.11;99507.91;4850145;29;20396;-89
2023/07/11 00:51:43;;;;;;;8.75;4.65;;;;;;;20.75;64.99;99511.13;4836459;29;20028;-89
2023/07/11 00:54:10;;;;;;;6.88;4.63;;;;;;;20.47;65.96;99492.47;4836779;29;20407;-89
2023/07/11 00:56:40;;;;;;;10.05;3.95;;;;;;;20.61;65.39;99508.66;4851545;29;20033;-89
2023/07/11 00:59:08;;;;;;;6.80;4.38;;;;;;;20.62;65.82;99514.94;4851682;29;20602;-89
2023/07/11 01:01:34;;;;;;;4.82;3.90;;;;;;;20.61;66.41;99519.59;4837502;29;20029;-89
2023/07/11 01:03:59;;;;;;;9.18;4.55;;;;;;;20.53;65.90;99521.22;4836664;29;20032;-88
2023/07/11 01:06:28;;;;;;;8.50;4.78;;;;;;;20.50;65.97;99518.34;4836717;29;20066;-89
2023/07/11 01:08:54;;;;;;;8.88;4.15;;;;;;;20.48;66.98;99512.41;4837664;29;20052;-89
2023/07/11 01:11:21;;;;;;;6.10;3.70;;;;;;;20.34;67.41;99502.53;4835190;29;20033;-89
2023/07/11 01:13:46;;;;;;;7.03;4.03;;;;;;;20.34;67.49;99505.25;4841566;29;20096;-89
2023/07/11 01:16:12;;;;;;;5.00;4.10;;;;;;;20.36;66.97;99507.66;4854298;29;20028;-89
2023/07/11 01:18:39;;;;;;;9.05;4.25;;;;;;;20.22;67.14;99504.38;4853747;29;20028;-89
2023/07/11 01:21:05;;;;;;;7.22;4.03;;;;;;;20.14;66.28;99495.06;4875124;29;20123;-89
2023/07/11 01:23:31;;;;;;;7.43;4.10;;;;;;;20.31;65.72;99503.16;4891072;29;20087;-89
2023/07/11 01:26:05;;;;;;;12.48;4.00;;;;;;;20.30;65.96;99495.31;4891525;29;20491;-89
2023/07/11 01:28:31;;;;;;;7.32;4.20;;;;;;;20.29;66.20;99501.91;4891163;29;20026;-89
2023/07/11 01:30:56;;;;;;;9.25;4.22;;;;;;;20.32;65.72;99507.53;4906881;29;20028;-89
2023/07/11 01:33:24;;;;;;;7.47;4.00;;;;;;;20.22;65.24;99499.69;4891149;29;20038;-89
2023/07/11 01:35:52;;;;;;;11.07;4.45;;;;;;;20.34;64.32;99501.72;4892227;29;20030;-89
2023/07/11 01:38:18;;;;;;;6.57;4.30;;;;;;;20.22;65.91;99498.91;4889904;29;20030;-89
2023/07/11 01:40:43;;;;;;;7.80;4.45;;;;;;;20.23;66.37;99503.22;4892534;29;20132;-89
2023/07/11 01:43:09;;;;;;;7.82;4.07;;;;;;;20.11;66.71;99495.75;4891944;29;20028;-89
2023/07/11 01:45:34;;;;;;;6.50;4.18;;;;;;;19.98;66.88;99498.38;4892015;29;20398;-89
2023/07/11 01:48:00;;;;;;;9.90;4.57;;;;;;;19.97;66.95;99495.94;4891253;29;20034;-89
2023/07/11 01:50:25;;;;;;;6.55;4.30;;;;;;;19.98;66.63;99481.97;4891500;29;20028;-89
2023/07/11 01:52:51;;;;;;;8.65;4.43;;;;;;;20.16;66.41;99510.00;4891140;29;20498;-89
2023/07/11 01:55:16;;;;;;;5.57;4.30;;;;;;;20.10;66.85;99488.66;4892236;29;20023;-89
2023/07/11 01:57:41;;;;;;;5.55;4.00;;;;;;;20.05;65.96;99491.59;4906303;29;20457;-89
2023/07/11 02:00:08;;;;;;;5.82;4.15;;;;;;;19.94;66.68;99489.22;4890561;29;20038;-89
2023/07/11 02:02:33;;;;;;;8.48;4.80;;;;;;;19.98;66.00;99486.59;4906780;29;20050;-89
2023/07/11 02:04:58;;;;;;;6.97;4.35;;;;;;;19.90;66.79;99485.53;4907119;29;20024;-90
2023/07/11 02:07:24;;;;;;;7.53;4.93;;;;;;;19.87;66.65;99485.38;4891443;29;20020;-89
2023/07/11 02:09:50;;;;;;;5.78;4.75;;;;;;;19.92;66.60;99491.47;4906352;29;20007;-89
2023/07/11 02:12:16;;;;;;;10.00;4.88;;;;;;;19.96;66.60;99494.34;4891406;29;20032;-89
2023/07/11 02:14:42;;;;;;;9.95;4.70;;;;;;;19.97;65.88;99485.81;4890813;29;20407;-89
2023/07/11 02:17:08;;;;;;;6.13;4.50;;;;;;;19.97;66.93;99495.94;4890453;29;20030;-89
2023/07/11 02:19:34;;;;;;;10.85;4.85;;;;;;;19.95;66.67;99485.34;4891583;29;20209;-89
2023/07/11 02:21:59;;;;;;;8.98;4.97;;;;;;;19.96;66.42;99494.34;4890914;29;20035;-89
2023/07/11 02:24:25;;;;;;;7.35;4.88;;;;;;;20.03;66.52;99499.31;4890941;29;20446;-89
2023/07/11 02:26:55;;;;;;;6.45;4.78;;;;;;;20.15;65.74;99496.66;4891008;29;20031;-89
2023/07/11 02:29:20;;;;;;;10.05;4.60;;;;;;;20.04;67.13;99476.31;4891083;29;20561;-89
2023/07/11 02:31:46;;;;;;;7.40;4.47;;;;;;;20.08;67.03;99483.50;4905983;29;20028;-89
2023/07/11 02:34:11;;;;;;;6.97;4.55;;;;;;;20.12;66.71;99487.19;4890273;29;20040;-89
2023/07/11 02:36:37;;;;;;;10.00;4.50;;;;;;;20.15;66.85;99494.75;4889837;29;20434;-89
2023/07/11 02:39:02;;;;;;;8.15;4.72;;;;;;;20.22;66.14;99486.03;4890458;29;20036;-89
2023/07/11 02:41:28;;;;;;;9.90;4.90;;;;;;;20.11;66.92;99491.06;4906397;29;20066;-89
2023/07/11 02:43:53;;;;;;;7.63;5.03;;;;;;;20.16;66.32;99481.88;4890622;29;20047;-89
2023/07/11 02:46:19;;;;;;;7.47;5.70;;;;;;;20.22;66.78;99477.03;4891071;29;20028;-89
2023/07/11 02:48:45;;;;;;;10.13;5.10;;;;;;;20.19;66.44;99478.47;4906183;29;20027;-89
2023/07/11 02:51:10;;;;;;;9.50;5.55;;;;;;;20.27;65.82;99479.56;4889936;29;20028;-89
2023/07/11 02:53:36;;;;;;;9.95;5.50;;;;;;;20.27;65.56;99457.69;4890058;29;20031;-89
2023/07/11 02:56:02;;;;;;;9.02;5.88;;;;;;;20.38;64.67;99472.59;4890553;29;20401;-89
2023/07/11 02:58:27;;;;;;;8.43;6.20;;;;;;;20.41;61.88;99471.91;4891351;29;20031;-89
2023/07/11 03:00:58;;;;;;;8.57;6.28;;;;;;;20.53;62.61;99482.94;4890654;29;20024;-89
2023/07/11 03:03:24;;;;;;;7.97;5.47;;;;;;;20.51;64.27;99490.66;4906017;29;20024;-89
2023/07/11 03:05:50;;;;;;;9.30;4.78;;;;;;;20.44;65.92;99478.63;4889880;29;20035;-89
2023/07/11 03:08:15;;;;;;;7.95;4.43;;;;;;;20.37;66.14;99479.19;4890076;29;20031;-89
2023/07/11 03:10:41;;;;;;;7.88;4.78;;;;;;;20.15;67.27;99480.25;4890503;29;20027;-89
2023/07/11 03:13:09;;;;;;;8.32;5.05;;;;;;;20.15;67.47;99489.28;4908244;29;20027;-89
2023/07/11 03:15:38;;;;;;;6.13;4.68;;;;;;;20.19;66.86;99481.19;4910314;29;20071;-89
2023/07/11 03:18:07;;;;;;;6.20;4.75;;;;;;;20.27;67.04;99494.03;4910967;29;20027;-89
2023/07/11 03:20:36;;;;;;;8.10;4.55;;;;;;;20.35;66.43;99489.63;4908938;29;20042;-89
2023/07/11 03:23:02;;;;;;;7.25;5.00;;;;;;;20.30;66.84;99495.31;4910003;29;20110;-89
2023/07/11 03:25:31;;;;;;;9.15;5.00;;;;;;;20.32;66.38;99485.63;4909477;29;20031;-88
2023/07/11 03:27:56;;;;;;;10.43;5.55;;;;;;;20.30;66.79;99487.91;4909274;29;20111;-89
2023/07/11 03:30:22;;;;;;;9.68;4.97;;;;;;;20.38;66.33;99473.38;4909056;29;20047;-89
2023/07/11 03:32:47;;;;;;;11.50;5.53;;;;;;;20.29;66.93;99490.97;4923435;29;20032;-89
2023/07/11 03:35:13;;;;;;;7.32;5.10;;;;;;;20.29;66.45;99488.22;4908559;29;20035;-89
2023/07/11 03:37:38;;;;;;;9.45;5.47;;;;;;;20.34;65.70;99491.59;4907933;29;20028;-89
2023/07/11 03:40:04;;;;;;;10.40;5.32;;;;;;;20.48;65.10;99485.06;4908080;29;20035;-91
2023/07/11 03:42:30;;;;;;;7.80;4.65;;;;;;;20.70;64.82;99505.88;4908985;29;20028;-91
2023/07/11 03:44:55;;;;;;;9.07;5.50;;;;;;;20.56;65.44;99495.13;4908154;29;20035;-91
2023/07/11 03:47:21;;;;;;;11.00;6.05;;;;;;;20.53;66.30;99513.03;4908668;29;20466;-91
2023/07/11 03:49:46;;;;;;;11.40;6.25;;;;;;;20.34;66.81;99505.25;4908742;29;20078;-91
2023/07/11 03:52:12;;;;;;;8.85;5.60;;;;;;;20.33;66.67;99495.44;4923762;29;20016;-90
2023/07/11 03:54:37;;;;;;;16.88;6.57;;;;;;;20.35;67.07;99495.91;4923872;29;20024;-91
2023/07/11 03:57:03;;;;;;;18.15;6.85;;;;;;;20.35;67.37;99501.38;4881008;29;20507;-90
2023/07/11 03:59:28;;;;;;;10.60;5.88;;;;;;;20.41;67.35;99485.59;4871333;29;20035;-90
2023/07/11 04:01:54;;;;;;;10.68;6.78;;;;;;;20.59;66.93;99509.00;4873260;29;20033;-90
2023/07/11 04:04:19;;;;;;;12.98;5.80;;;;;;;20.59;66.80;99492.56;4874807;29;20035;-90
2023/07/11 04:06:51;;;;;;;13.20;6.28;;;;;;;20.68;66.57;99488.97;4880926;29;20028;-90
2023/07/11 04:09:16;;;;;;;14.18;6.15;;;;;;;20.66;67.32;99492.03;4857719;29;20061;-90
2023/07/11 04:11:42;;;;;;;13.10;6.28;;;;;;;20.71;66.50;99499.25;4855179;29;20443;-90
2023/07/11 04:14:10;;;;;;;14.23;6.78;;;;;;;20.74;66.09;99493.91;4875299;29;20521;-90
2023/07/11 04:16:35;;;;;;;11.52;6.57;;;;;;;20.75;66.57;99494.72;4908680;29;20027;-91
2023/07/11 04:19:00;;;;;;;15.07;12.05;;;;;;;20.83;66.93;99501.25;4893378;29;20019;-90
2023/07/11 04:21:26;;;;;;;12.73;6.55;;;;;;;20.84;66.98;99492.72;4893397;29;20024;-90
2023/07/11 04:23:52;;;;;;;8.77;6.32;;;;;;;20.96;65.81;99492.00;4893197;29;20023;-89
2023/07/11 04:26:17;;;;;;;13.20;7.35;;;;;;;21.01;65.40;99486.28;4893959;29;20028;-90
2023/07/11 04:28:43;;;;;;;9.48;6.07;;;;;;;21.22;65.43;99497.22;4896552;29;20395;-89
2023/07/11 04:31:08;;;;;;;14.23;7.00;;;;;;;21.39;64.80;99496.25;4889294;29;20079;-89
2023/07/11 04:33:34;;;;;;;15.82;7.03;;;;;;;21.45;64.40;99502.34;4891219;29;20031;-90
2023/07/11 04:36:10;;;;;;;9.70;6.13;;;;;;;21.66;63.83;99502.28;4886009;29;20039;-90
2023/07/11 04:38:36;;;;;;;12.48;8.30;;;;;;;21.80;63.85;99502.75;4878814;29;20028;-90
2023/07/11 04:41:08;;;;;;;12.57;7.15;;;;;;;21.70;63.57;99484.03;4877398;29;20114;-90
2023/07/11 04:43:33;;;;;;;20.90;9.93;;;;;;;21.77;63.54;99498.78;4873386;29;20052;-89
2023/07/11 04:46:00;;;;;;;12.50;8.65;;;;;;;21.87;63.48;99510.41;4873197;29;20139;-89
2023/07/11 04:48:25;;;;;;;18.60;6.68;;;;;;;21.89;62.91;99500.72;4874105;29;20028;-89
2023/07/11 04:50:58;;;;;;;14.10;6.43;;;;;;;21.91;63.56;99503.91;4873584;29;20031;-88
2023/07/11 04:53:23;;;;;;;10.25;6.20;;;;;;;22.04;63.09;99507.50;4874237;29;20499;-89
2023/07/11 04:55:56;;;;;;;11.02;6.10;;;;;;;22.07;62.81;99512.28;4874391;29;20040;-89
2023/07/11 04:58:29;;;;;;;13.88;6.65;;;;;;;22.11;62.20;99484.97;4888977;29;20403;-89
2023/07/11 05:00:59;;;;;;;11.40;6.55;;;;;;;22.23;62.24;99495.16;4875109;29;20032;-90
2023/07/11 05:03:24;;;;;;;17.05;5.60;;;;;;;22.58;60.07;99509.22;4873461;29;20035;-90
2023/07/11 05:05:53;;;;;;;8.73;5.22;;;;;;;22.54;57.17;99505.56;4874323;29;20024;-89
2023/07/11 05:08:18;;;;;;;8.00;5.00;;;;;;;22.73;56.72;99493.97;4873585;29;20051;-90
2023/07/11 05:11:14;;;;;;;10.93;6.22;;;;;;;22.84;56.83;99516.22;4889969;29;20035;-90
2023/07/11 05:13:40;;;;;;;9.10;5.53;;;;;;;22.66;57.38;99494.56;4870207;29;20135;-89
2023/07/11 05:16:08;;;;;;;7.68;5.30;;;;;;;22.76;56.96;99506.97;4875332;29;20056;-90
2023/07/11 05:18:35;;;;;;;8.10;6.10;;;;;;;23.09;55.80;99520.53;4874000;29;20217;-90
2023/07/11 05:21:02;;;;;;;10.35;6.05;;;;;;;22.93;55.59;99505.91;4874447;29;20110;-90
2023/07/11 05:23:28;;;;;;;7.13;5.70;;;;;;;22.95;56.69;99517.34;4875666;29;20064;-89
2023/07/11 05:27:18;;;;;;;;;;;;;;;;;;;;;
2023/07/11 05:29:47;;;;;;;10.00;7.38;;;;;;;23.39;56.77;99531.97;4772188;30;20118;-91
2023/07/11 05:32:13;;;;;;;10.98;6.43;;;;;;;23.39;55.53;99523.72;4889099;29;20099;-90
2023/07/11 05:34:39;;;;;;;11.85;6.22;;;;;;;23.47;55.07;99512.91;4895292;29;20027;-89
2023/07/11 05:37:17;;;;;;;10.73;6.65;;;;;;;23.55;55.16;99518.28;4896839;29;20121;-91
2023/07/11 05:46:37;;;;;;;17.88;6.65;;;;;;;23.64;55.05;99520.84;4894946;29;20048;-90
2023/07/11 05:49:44;;;;;;;27.45;23.42;;;;;;;23.84;54.93;99526.47;4870853;29;20056;-90
2023/07/11 05:52:09;;;;;;;10.40;7.25;;;;;;;23.88;54.44;99517.16;4904617;29;20020;-91
2023/07/11 05:54:38;;;;;;;15.25;7.05;;;;;;;24.05;54.44;99529.78;4905633;29;20027;-91
2023/07/11 05:57:09;;;;;;;9.90;6.43;;;;;;;24.06;54.59;99531.38;4893638;29;20035;-91
2023/07/11 05:59:38;;;;;;;23.60;7.25;;;;;;;24.15;53.91;99529.22;4901223;29;20024;-91
2023/07/11 06:02:04;;;;;;;9.90;6.97;;;;;;;24.24;53.25;99531.00;4872520;29;20260;-92
2023/07/11 06:04:42;;;;;;;23.05;7.50;;;;;;;24.25;52.91;99527.91;4905891;29;20103;-92
2023/07/11 06:07:11;;;;;;;12.73;6.80;;;;;;;24.23;53.00;99505.44;4906493;29;20047;-91
2023/07/11 06:09:55;;;;;;;10.40;6.53;;;;;;;24.29;52.71;99509.53;4906096;29;20047;-91
2023/07/11 06:12:22;;;;;;;10.27;6.45;;;;;;;24.57;53.37;99522.34;4901286;29;20431;-92
2023/07/11 06:14:49;;;;;;;11.55;6.47;;;;;;;24.62;52.01;99529.56;4892467;29;20052;-93
2023/07/11 06:17:15;;;;;;;9.88;7.07;;;;;;;24.64;52.28;99519.00;4918918;29;20032;-90
2023/07/11 06:19:40;;;;;;;10.88;7.30;;;;;;;24.60;53.06;99500.41;4893071;29;20047;-91
2023/07/11 06:22:09;;;;;;;13.73;7.35;;;;;;;24.87;51.98;99521.84;4918102;29;20071;-89
2023/07/11 06:24:41;;;;;;;10.90;7.35;;;;;;;24.87;52.12;99508.06;4909678;29;20127;-90
2023/07/11 06:27:06;;;;;;;10.38;8.38;;;;;;;25.08;52.77;99518.72;4903906;29;20387;-90
2023/07/11 06:30:10;;;;;;;12.80;8.38;;;;;;;25.19;51.78;99504.03;4909324;29;20038;-91
2023/07/11 06:32:35;;;;;;;14.82;9.75;;;;;;;25.08;51.84;99475.44;4883170;29;20031;-91
2023/07/11 06:35:07;;;;;;;11.82;8.40;;;;;;;25.39;51.63;99487.47;4907640;29;20068;-91
2023/07/11 06:37:41;;;;;;;;;;;;;;;25.76;51.34;99504.31;4890433;29;20032;-94
2023/07/11 06:40:14;;;;;;;13.05;8.32;;;;;;;25.81;50.95;99481.13;4922583;29;19911;-96
2023/07/11 06:42:40;;;;;;;15.18;7.82;;;;;;;26.13;50.57;99506.53;4935280;29;20031;-94
2023/07/11 06:45:31;;;;;;;13.88;7.20;;;;;;;26.26;49.60;99482.25;4919629;29;20032;-96
2023/07/11 06:48:09;;;;;;;9.80;5.38;;;;;;;26.28;46.47;99477.16;4918840;29;20496;-95
2023/07/11 06:51:01;;;;;;;10.40;6.07;;;;;;;26.37;47.00;99474.13;4939020;29;20035;-95
2023/07/11 06:59:41;;;;;;;5.78;4.85;;;;;;;26.87;45.96;99485.09;4937740;29;20067;-96
2023/07/11 07:02:26;;;;;;;6.22;4.57;;;;;;;26.92;44.35;99463.44;4902803;29;20044;-96
2023/07/11 07:05:04;;;;;;;5.85;4.65;;;;;;;27.01;44.65;99469.47;4863185;29;20563;-96
2023/07/11 07:07:32;;;;;;;17.25;10.95;;;;;;;27.39;44.70;99503.50;4894682;29;20041;-95
2023/07/11 07:10:44;;;;;;;7.35;4.53;;;;;;;27.34;42.43;99473.41;4867812;29;20041;-92
2023/07/11 07:13:13;;;;;;;10.88;4.47;;;;;;;27.46;42.78;99471.56;4857653;29;20069;-95
2023/07/11 07:15:38;;;;;;;7.03;3.70;;;;;;;27.49;41.75;99473.56;4841637;29;20113;-94
2023/07/11 07:18:05;;;;;;;9.27;5.32;;;;;;;27.81;41.50;99494.03;4823450;29;20045;-94
2023/07/11 07:20:40;;;;;;;7.03;5.22;;;;;;;27.74;41.80;99484.84;4861239;29;20094;-95
2023/07/11 07:23:40;;;;;;;6.85;4.32;;;;;;;27.75;42.32;99472.63;4847969;29;20104;-96
2023/07/11 07:26:07;;;;;;;7.97;5.03;;;;;;;28.07;39.96;99497.03;4878199;29;20146;-96
2023/07/11 07:28:35;;;;;;;5.70;4.80;;;;;;;27.99;39.82;99462.94;4850382;29;20070;-95
2023/07/11 07:31:10;;;;;;;5.88;4.60;;;;;;;28.15;40.22;99479.28;4858354;29;20045;-96
2023/07/11 07:33:36;;;;;;;8.13;5.40;;;;;;;28.27;39.70;99495.59;4856216;29;20045;-96
2023/07/11 07:36:32;;;;;;;10.85;8.00;;;;;;;28.24;38.44;99481.72;4833464;29;20056;-95
2023/07/11 07:39:25;;;;;;;5.18;4.00;;;;;;;28.35;38.44;99464.00;4852603;29;20036;-94
2023/07/11 07:41:52;;;;;;;14.50;9.55;;;;;;;28.68;37.16;99494.66;4872954;29;20074;-95
2023/07/11 07:44:29;;;;;;;11.38;5.78;;;;;;;28.65;37.02;99484.38;4848711;29;20009;-94
2023/07/11 07:46:59;;;;;;;5.68;3.53;;;;;;;28.84;36.45;99499.88;4848106;29;20045;-93
2023/07/11 07:49:25;;;;;;;5.33;3.80;;;;;;;28.80;36.39;99483.25;4834688;29;20060;-95
2023/07/11 07:51:54;;;;;;;9.70;7.22;;;;;;;28.92;35.95;99502.31;4824650;29;20320;-92
2023/07/11 07:54:20;;;;;;;13.27;4.25;;;;;;;28.95;36.04;99500.72;4824586;29;20061;-93
2023/07/11 07:56:54;;;;;;;6.18;3.47;;;;;;;28.83;35.58;99490.00;4822663;29;20037;-94
2023/07/11 07:59:20;;;;;;;7.28;3.80;;;;;;;28.79;34.98;99479.69;4838182;29;20219;-95
2023/07/11 08:02:08;;;;;;;4.65;3.55;;;;;;;28.70;35.44;99476.47;4840048;29;20057;-94
2023/07/11 08:04:35;;;;;;;5.65;3.80;;;;;;;28.72;35.49;99476.88;4858183;29;20110;-94
2023/07/11 08:07:01;;;;;;;6.43;3.88;;;;;;;28.71;35.30;99463.41;4863220;29;20068;-96
2023/07/11 08:09:30;;;;;;;5.03;3.92;;;;;;;28.92;35.72;99468.25;4859074;29;20049;-95
2023/07/11 08:12:04;;;;;;;7.40;4.05;;;;;;;28.98;35.12;99470.25;4858754;29;20053;-93
2023/07/11 08:14:30;;;;;;;5.63;3.38;;;;;;;29.27;35.39;99486.22;4868731;29;20088;-95
2023/07/11 08:17:10;;;;;;;5.50;3.88;;;;;;;29.39;35.82;99483.88;4873080;29;20580;-95
2023/07/11 08:19:36;;;;;;;8.52;3.70;;;;;;;29.32;34.85;99455.31;4875937;29;20125;-94
2023/07/11 08:25:30;;;;;;;6.28;4.70;;;;;;;29.54;35.33;99448.59;4890925;29;20067;-92
2023/07/11 08:27:56;;;;;;;7.63;3.72;;;;;;;29.68;34.36;99460.91;4871186;29;20131;-90
2023/07/11 08:30:31;;;;;;;8.02;4.75;;;;;;;29.79;34.23;99476.41;4878507;29;20066;-91
2023/07/11 08:33:21;;;;;;;7.35;4.72;;;;;;;29.95;34.52;99470.47;4882090;29;20492;-92
2023/07/11 08:35:47;;;;;;;13.05;4.10;;;;;;;29.93;33.39;99441.50;4890521;29;20407;-91
2023/07/11 08:38:12;;;;;;;6.38;3.45;;;;;;;30.07;33.98;99452.59;4876192;29;20036;-92
2023/07/11 08:40:48;;;;;;;8.75;4.20;;;;;;;30.09;35.26;99453.00;4886722;29;20095;-90
2023/07/11 08:44:02;;;;;;;7.03;4.20;;;;;;;30.17;33.68;99446.25;4886897;29;20032;-90
2023/07/11 08:46:40;;;;;;;5.88;4.20;;;;;;;30.12;33.71;99445.84;4921353;29;20455;-90
2023/07/11 08:49:16;;;;;;;5.10;3.70;;;;;;;30.24;33.79;99445.44;4889299;29;20035;-89
2023/07/11 08:51:49;;;;;;;4.72;3.80;;;;;;;30.15;33.16;99436.69;4885417;29;20028;-89
2023/07/11 09:08:19;;;;;;;7.63;4.25;;;;;;;30.05;33.49;99435.53;4910067;29;20079;-95
2023/07/11 09:11:06;;;;;;;;;;;;;;;;;;;;;
2023/07/11 09:13:56;;;;;;;5.28;3.80;;;;;;;30.26;33.67;99453.34;4916994;29;20095;-96
2023/07/11 09:16:43;;;;;;;5.93;3.63;;;;;;;30.37;34.08;99445.81;4874828;29;20040;-95
2023/07/11 09:19:31;;;;;;;7.75;4.97;;;;;;;30.60;33.81;99453.69;4879621;29;20035;-96
2023/07/11 09:22:25;;;;;;;7.35;4.10;;;;;;;30.65;33.30;99447.69;4881440;29;20029;-95
2023/07/11 09:24:56;;;;;;;6.35;4.20;;;;;;;30.83;33.80;99448.41;4893171;29;20050;-94
2023/07/11 09:27:56;;;;;;;6.38;5.13;;;;;;;30.81;34.25;99422.22;4859845;29;20033;-94
2023/07/11 09:30:50;;;;;;;9.18;3.97;;;;;;;30.85;33.10;99425.00;4843784;29;20039;-96
2023/07/11 09:33:23;;;;;;;7.13;3.65;;;;;;;30.82;33.25;99418.25;4845636;29;20029;-95
2023/07/11 09:35:50;;;;;;;5.03;4.07;;;;;;;31.01;33.98;99425.34;4845808;29;20045;-93
2023/07/11 09:38:36;;;;;;;7.97;4.50;;;;;;;31.17;32.36;99419.25;4855509;29;20025;-95
2023/07/11 09:41:33;;;;;;;8.60;4.75;;;;;;;31.42;33.29;99433.03;4886920;29;20514;-94
2023/07/11 09:51:06;;;;;;;4.07;3.63;;;;;;;31.36;31.79;99431.88;4903537;29;20052;-94
2023/07/11 09:53:32;;;;;;;6.53;3.90;;;;;;;31.40;32.40;99435.41;4909138;29;20024;-92
2023/07/11 09:56:01;;;;;;;4.78;3.72;;;;;;;31.36;32.54;99437.44;4865936;29;20036;-92
2023/07/11 09:59:05;;;;;;;5.93;3.83;;;;;;;31.47;31.99;99437.38;4840554;29;20033;-93
2023/07/11 10:01:54;;;;;;;6.68;3.92;;;;;;;31.28;31.85;99428.34;4866724;29;20026;-94
2023/07/11 10:04:46;;;;;;;5.65;3.47;;;;;;;31.24;31.79;99424.78;4897453;29;20064;-93
2023/07/11 10:07:14;;;;;;;5.85;3.80;;;;;;;31.27;32.72;99429.53;4863524;29;20055;-92
2023/07/11 10:09:50;;;;;;;8.75;4.10;;;;;;;31.28;32.39;99405.31;4883657;29;20025;-92
2023/07/11 10:12:24;;;;;;;5.30;4.07;;;;;;;31.35;30.89;99413.59;4862727;29;20036;-92
2023/07/11 10:15:06;;;;;;;4.82;3.95;;;;;;;31.28;32.29;99394.16;4875702;29;20079;-92
2023/07/11 10:20:56;;;;;;;6.22;4.05;;;;;;;31.60;32.30;99403.06;4862078;29;20172;-93
2023/07/11 10:27:59;;;;;;;10.02;6.03;;;;;;;31.79;32.41;99384.22;4871385;29;20136;-92
2023/07/11 10:33:55;;;;;;;5.18;3.53;;;;;;;32.00;31.84;99389.59;4836632;29;20115;-91
2023/07/11 10:37:17;;;;;;;4.80;3.85;;;;;;;31.94;32.07;99379.31;4871136;29;20077;-87
2023/07/11 10:40:04;;;;;;;13.48;8.85;;;;;;;32.08;31.87;99383.94;4824752;29;20498;-94
2023/07/11 10:42:35;;;;;;;10.20;5.82;;;;;;;32.42;32.67;99404.25;4796675;29;20053;-94
2023/07/11 10:45:18;;;;;;;5.20;4.00;;;;;;;32.38;31.41;99411.09;4815623;29;20043;-93
2023/07/11 10:54:49;;;;;;;7.13;5.80;;;;;;;32.55;31.82;99398.16;4875198;29;20080;-94
2023/07/11 10:57:41;;;;;;;10.07;4.55;;;;;;;32.64;31.28;99395.66;4931442;29;20042;-95
2023/07/11 11:01:16;;;;;;;9.05;4.50;;;;;;;32.47;32.03;99360.41;4917726;29;20496;-94
2023/07/11 11:03:55;;;;;;;8.32;3.88;;;;;;;32.40;30.82;99370.44;4892523;29;20499;-94
2023/07/11 11:06:36;;;;;;;11.00;3.47;;;;;;;32.40;31.79;99352.94;4865064;29;20376;-93
2023/07/11 11:19:19;;;;;;;9.15;4.10;;;;;;;32.74;31.58;99374.41;4904496;29;20538;-96
2023/07/11 11:22:26;;;;;;;16.20;9.52;;;;;;;32.75;31.58;99354.47;4893493;29;20432;-94
2023/07/11 11:25:36;;;;;;;10.13;7.40;;;;;;;32.83;31.99;99346.78;4922283;29;20051;-96
2023/07/11 11:28:24;;;;;;;7.95;4.90;;;;;;;33.13;31.30;99367.50;4876929;29;20127;-92
2023/07/11 11:31:05;;;;;;;5.47;4.25;;;;;;;33.29;32.16;99364.06;4892361;29;20054;-94
2023/07/11 11:33:49;;;;;;;4.85;3.92;;;;;;;33.45;30.83;99355.81;4921554;29;20035;-92
2023/07/11 11:36:31;;;;;;;7.68;4.70;;;;;;;33.51;31.42;99350.53;4935948;29;20046;-92
2023/07/11 11:39:02;;;;;;;11.48;5.63;;;;;;;33.49;31.02;99345.38;4935943;29;20039;-93
2023/07/11 11:41:37;;;;;;;7.47;4.00;;;;;;;33.45;30.94;99343.88;4933740;29;20533;-93
2023/07/11 11:44:14;;;;;;;7.72;4.22;;;;;;;33.47;31.43;99344.22;4901741;29;20047;-93
2023/07/11 11:46:40;;;;;;;7.47;5.18;;;;;;;33.28;31.06;99304.66;4901572;29;20074;-93
2023/07/11 11:49:07;;;;;;;7.18;3.90;;;;;;;33.44;30.63;99334.72;4912789;29;20051;-90
2023/07/11 11:51:33;;;;;;;6.10;3.70;;;;;;;33.41;30.44;99321.59;4897770;29;20080;-91
2023/07/11 11:54:03;;;;;;;4.35;3.50;;;;;;;33.60;29.73;99332.06;4896121;29;20028;-92
2023/07/11 12:03:50;;;;;;;8.55;4.15;;;;;;;33.16;29.63;99294.91;4872665;29;20058;-90
2023/07/11 12:06:40;;;;;;;4.57;3.63;;;;;;;33.37;29.93;99316.09;4890699;29;20108;-89
2023/07/11 12:09:17;;;;;;;5.50;3.78;;;;;;;33.39;29.16;99307.25;4872475;29;20064;-89
2023/07/11 12:16:21;;;;;;;8.77;4.25;;;;;;;33.31;29.87;99269.53;4857828;29;20043;-95
2023/07/11 12:19:08;;;;;;;6.70;3.60;;;;;;;33.55;29.30;99293.41;4904362;29;20044;-95
2023/07/11 12:21:41;;;;;;;6.50;4.00;;;;;;;33.33;29.55;99283.84;4907509;29;20040;-96
2023/07/11 12:24:23;;;;;;;4.07;3.60;;;;;;;33.41;29.98;99290.88;4878033;29;20048;-95
2023/07/11 12:27:22;;;;;;;8.48;3.45;;;;;;;33.48;29.36;99299.13;4899010;29;20151;-89
2023/07/11 12:29:49;;;;;;;6.15;3.58;;;;;;;33.46;29.15;99290.41;4893990;29;20134;-89
2023/07/11 12:32:39;;;;;;;12.88;4.00;;;;;;;33.53;28.96;99270.72;4912104;29;20071;-90
2023/07/11 12:35:05;;;;;;;6.20;3.80;;;;;;;33.70;28.40;99279.22;4902469;29;20040;-89
2023/07/11 12:37:46;;;;;;;5.55;3.22;;;;;;;33.77;28.67;99281.88;4901886;29;20043;-96
2023/07/11 12:40:46;;;;;;;7.10;3.50;;;;;;;33.82;28.31;99281.38;4918665;29;20032;-96
2023/07/11 12:43:38;;;;;;;7.13;3.38;;;;;;;33.80;29.04;99253.84;4931090;29;20528;-94
2023/07/11 12:46:34;;;;;;;5.63;3.42;;;;;;;33.91;30.06;99269.63;4916323;29;20032;-95
2023/07/11 12:49:00;;;;;;;7.93;3.55;;;;;;;33.92;28.64;99246.84;4907733;29;20054;-94
2023/07/11 12:51:47;;;;;;;6.15;3.88;;;;;;;34.14;29.06;99268.75;4888165;29;20036;-96
2023/07/11 12:54:34;;;;;;;;;;;;;;;;;;;;;
2023/07/11 12:57:00;;;;;;;4.45;3.33;;;;;;;34.21;28.33;99246.28;4896426;29;20159;-91
2023/07/11 13:00:37;;;;;;;;;;;;;;;;;;;;;
2023/07/11 13:10:34;;;;;;;10.55;4.03;;;;;;;34.98;28.08;99266.47;4853384;29;20073;-91
2023/07/11 13:16:50;;;;;;;5.28;3.13;;;;;;;34.97;27.14;99259.31;4827546;29;20037;-89
2023/07/11 13:19:20;;;;;;;8.82;3.85;;;;;;;35.16;27.42;99268.88;4870489;29;20061;-90
2023/07/11 13:21:46;;;;;;;5.07;3.72;;;;;;;35.20;26.68;99255.56;4867803;29;20044;-94
2023/07/11 13:24:15;;;;;;;5.20;3.13;;;;;;;35.45;27.54;99262.50;4881897;29;20047;-95
2023/07/11 13:26:41;;;;;;;6.43;3.28;;;;;;;35.54;26.77;99277.44;4869505;29;20132;-95
2023/07/11 13:29:20;;;;;;;7.20;3.83;;;;;;;35.41;27.07;99259.81;4861246;29;20044;-94
2023/07/11 13:31:49;;;;;;;6.20;3.40;;;;;;;35.67;27.04;99249.50;4875961;29;20032;-94